CW4848 Ferrals les Corbiares FR current weather conditions

sailwx.info

Wind from 289 at 6 knots gusting 10

Air temperature 16.7° C
Dewpoint 10.5° C

Last reported at 2020-Feb-28 14:58 UTC.
Time now 2020-Feb-28 15:41 UTC

Location: N 43°09' E 002°44'.
View on Google Maps.

See reports from other nearby stations

  
Tides and Currents Weather Stations Pressure Air Temp Water Temp Dewpoint Dewpoint Depression Visibility Wind Speed Wind Dir Waves Ship Positions
date/time (UTC)wind fromknots sea level pressurealtimeterstation pressurevisibilityair tempwater tempwave heightnotes
2020-Feb-28 14:58 289 6 gusting 10 16.7
2020-Feb-28 13:58 292 3 gusting 8 16.1
2020-Feb-28 13:28 239 5 gusting 10 16.1
2020-Feb-28 12:58 286 3 gusting 8 16.1
2020-Feb-28 12:28 311 5 gusting 9 15.0
2020-Feb-28 11:58 258 6 gusting 13 14.4
2020-Feb-28 10:58 360 5 gusting 7 12.8
2020-Feb-28 10:28 269 3 gusting 6 11.7
2020-Feb-28 09:58 216 5 gusting 8 10.6
2020-Feb-28 09:28 250 4 gusting 6 10.6
2020-Feb-28 08:58 160 0 gusting 4 10.0
2020-Feb-28 08:28 171 0 gusting 4 10.0
2020-Feb-28 07:58 231 1 gusting 6 9.4
2020-Feb-28 07:28 190 1 gusting 4 9.4
2020-Feb-28 06:58 205 3 gusting 6 9.4
2020-Feb-28 06:28 214 3 gusting 6 9.4
2020-Feb-28 05:58 172 0 gusting 3 9.4
2020-Feb-28 04:58 257 1 gusting 2 10.0
2020-Feb-28 03:58 254 3 gusting 5 9.4
2020-Feb-28 03:28 245 1 gusting 4 10.0
2020-Feb-28 02:58 322 2 gusting 4 10.0
2020-Feb-28 02:28 301 2 gusting 4 10.0
2020-Feb-28 01:58 301 4 gusting 11 10.0
2020-Feb-28 01:28 268 10 gusting 15 10.0
2020-Feb-28 00:58 257 5 gusting 7 10.6
2020-Feb-28 00:28 261 7 gusting 13 11.1
2020-Feb-27 23:58 287 5 gusting 12 11.1
2020-Feb-27 22:58 323 9 gusting 19 11.7
2020-Feb-27 22:28 294 10 gusting 24 12.2
2020-Feb-27 21:58 269 13 gusting 24 12.2
2020-Feb-27 20:58 296 14 gusting 30 12.8
2020-Feb-27 19:58 273 12 gusting 27 13.3
2020-Feb-27 18:58 294 18 gusting 35 12.8
2020-Feb-27 18:28 262 20 gusting 31 12.8
2020-Feb-27 17:58 249 18 gusting 34 12.8
2020-Feb-27 17:28 272 10 gusting 27 13.3
2020-Feb-27 16:58 260 13 gusting 28 15.0
2020-Feb-27 15:58 263 17 gusting 32 15.0
2020-Feb-27 14:58 282 14 gusting 31 15.0
2020-Feb-27 14:28 287 14 gusting 25 15.0
2020-Feb-27 13:58 267 14 gusting 23 14.4
2020-Feb-27 13:28 291 13 gusting 26 14.4
2020-Feb-27 12:58 310 7 gusting 22 14.4
2020-Feb-27 12:28 299 13 gusting 32 14.4
2020-Feb-27 11:58 296 8 gusting 22 12.8
2020-Feb-27 11:28 223 13 gusting 21 11.7
2020-Feb-27 10:28 360 0 gusting 4 8.9
2020-Feb-27 09:58 265 2 gusting 3 8.3
2020-Feb-27 09:28 064 0 gusting 1 7.8
2020-Feb-27 08:58 191 7.8
2020-Feb-27 08:28 188 7.2
2020-Feb-27 07:58 191 1 gusting 3 7.2
2020-Feb-27 06:28 179 1 gusting 4 6.1
2020-Feb-27 05:28 139 6.1
2020-Feb-27 04:58 173 0 gusting 3 6.7
2020-Feb-27 04:28 247 0 gusting 2 7.2
2020-Feb-27 03:58 222 0 gusting 6 7.2
2020-Feb-27 02:28 278 6 gusting 10 8.3
2020-Feb-27 01:58 229 2 gusting 6 8.3
2020-Feb-27 01:28 271 4 gusting 8 8.3
2020-Feb-27 00:58 248 1 gusting 5 8.3
2020-Feb-27 00:28 236 1 gusting 7 8.3
2020-Feb-26 23:28 261 6 gusting 16 8.9
2020-Feb-26 22:28 274 8 gusting 16 8.3
2020-Feb-26 21:28 274 7 gusting 20 8.3
2020-Feb-26 20:58 278 7 gusting 22 8.3
2020-Feb-26 19:58 278 6 gusting 14 8.3
2020-Feb-26 19:28 271 9 gusting 25 8.3
2020-Feb-26 18:58 323 10 gusting 18 8.3
2020-Feb-26 17:58 232 12 gusting 27 8.9
2020-Feb-26 17:28 292 14 gusting 27 8.9
2020-Feb-26 16:58 283 7 gusting 19 8.9